Time;durP1;ratioP1;P1;durP2;ratioP2;P2;SDS_P1;SDS_P2;PMS_P1;PMS_P2;Temp;Humidity;BMP_temperature;BMP_pressure;BME280_temperature;BME280_humidity;BME280_pressure;Samples;Min_cycle;Max_cycle;Signal;HPM_P1;HPM_P2
2024/03/11 00:01:06;;;;;;;;;;;;;;;-2.09;100.00;102395.03;5053098;28;20304;-65
2024/03/11 00:03:32;;;;;;;;;;;;;;;-2.11;100.00;102399.44;5055028;28;20003;-66
2024/03/11 00:05:58;;;;;;;;;;;;;;;-2.10;100.00;102402.03;5036196;28;19916;-67
2024/03/11 00:08:23;;;;;;;;;;;;;;;-2.10;100.00;102406.38;5052902;28;19967;-67
2024/03/11 00:10:55;;;;;;;;;;;;;;;-2.11;100.00;102402.06;5054097;28;19917;-65
2024/03/11 00:13:22;;;;;;;;;;;;;;;-2.11;100.00;102404.66;5054333;28;19947;-66
2024/03/11 00:15:50;;;;;;;;;;;;;;;-2.13;100.00;102407.31;5054269;28;19917;-65
2024/03/11 00:18:16;;;;;;;;;;;;;;;-2.15;100.00;102398.69;5053350;28;20296;-67
2024/03/11 00:20:43;;;;;;;;;;;;;;;-2.13;100.00;102404.72;5053848;28;19923;-67
2024/03/11 00:23:09;;;;;;;;;;;;;;;-2.12;100.00;102405.56;5053861;28;19978;-69
2024/03/11 00:25:35;;;;;;;;;;;;;;;-2.11;100.00;102404.66;5052848;28;20339;-65
2024/03/11 00:28:02;;;;;;;;;;;;;;;-2.10;100.00;102406.38;5055579;28;19921;-67
2024/03/11 00:30:28;;;;;;;;;;;;;;;-2.09;100.00;102415.94;5053998;28;20446;-66
2024/03/11 00:32:53;;;;;;;;;;;;;;;-2.11;100.00;102410.75;5054156;28;19917;-67
2024/03/11 00:35:19;;;;;;;;;;;;;;;-2.13;100.00;102407.31;5054042;28;19924;-67
2024/03/11 00:37:45;;;;;;;;;;;;;;;-2.15;100.00;102403.03;5053594;28;20388;-68
2024/03/11 00:40:11;;;;;;;;;;;;;;;-2.18;100.00;102401.38;5053540;28;20015;-66
2024/03/11 00:42:39;;;;;;;;;;;;;;;-2.17;100.00;102405.69;5054469;28;20080;-66
2024/03/11 00:45:06;;;;;;;;;;;;;;;-2.14;100.00;102409.97;5054090;28;19916;-65
2024/03/11 00:47:31;;;;;;;;;;;;;;;-2.13;100.00;102402.09;5054141;28;19916;-67
2024/03/11 00:49:57;;;;;;;;;;;;;;;-2.12;100.00;102406.44;5053742;28;19924;-64
2024/03/11 00:52:22;;;;;;;;;;;;;;;-2.11;100.00;102397.69;5056833;28;19924;-64
2024/03/11 00:54:47;;;;;;;;;;;;;;;-2.10;100.00;102409.00;5055147;28;19927;-66
2024/03/11 00:57:14;;;;;;;;;;;;;;;-2.13;100.00;102406.47;5054760;28;19917;-66
2024/03/11 00:59:40;;;;;;;;;;;;;;;-2.15;100.00;102408.28;5057032;28;19916;-66
2024/03/11 01:02:07;;;;;;;;;;;;;;;-2.19;100.00;102405.75;5085862;28;19963;-65
2024/03/11 01:04:32;;;;;;;;;;;;;;;-2.21;100.00;102404.94;5054172;28;19924;-65
2024/03/11 01:06:59;;;;;;;;;;;;;;;-2.17;100.00;102402.22;5052720;28;19920;-65
2024/03/11 01:09:25;;;;;;;;;;;;;;;-2.17;100.00;102410.06;5053340;28;20036;-65
2024/03/11 01:11:50;;;;;;;;;;;;;;;-2.20;100.00;102405.78;5051329;28;20007;-66
2024/03/11 01:14:15;;;;;;;;;;;;;;;-2.21;100.00;102406.69;5085282;28;19962;-66
2024/03/11 01:16:41;;;;;;;;;;;;;;;-2.24;100.00;102410.22;5052983;28;20380;-67
2024/03/11 01:19:07;;;;;;;;;;;;;;;-2.23;100.00;102406.72;5052050;28;20360;-66
2024/03/11 01:21:35;;;;;;;;;;;;;;;-2.25;100.00;102408.53;5056861;28;20372;-67
2024/03/11 01:24:01;;;;;;;;;;;;;;;-2.28;100.00;102406.00;5057078;28;20013;-66
2024/03/11 01:26:26;;;;;;;;;;;;;;;-2.32;100.00;102409.56;5053082;28;19920;-67
2024/03/11 01:28:54;;;;;;;;;;;;;;;-2.32;100.00;102412.16;5057769;28;19927;-65
2024/03/11 01:31:23;;;;;;;;;;;;;;;-2.32;100.00;102417.38;5054304;28;19966;-65
2024/03/11 01:33:48;;;;;;;;;;;;;;;-2.34;100.00;102400.06;5052937;28;19916;-65
2024/03/11 01:36:14;;;;;;;;;;;;;;;-2.32;100.00;102399.13;5053670;28;20007;-67
2024/03/11 01:38:39;;;;;;;;;;;;;;;-2.34;100.00;102411.34;5053091;28;19917;-65
2024/03/11 01:41:05;;;;;;;;;;;;;;;-2.36;100.00;102402.72;5046481;28;20032;-66
2024/03/11 01:43:30;;;;;;;;;;;;;;;-2.34;100.00;102408.75;5032370;28;20376;-65
2024/03/11 01:45:55;;;;;;;;;;;;;;;-2.34;100.00;102408.75;5031929;28;19978;-66
2024/03/11 01:48:21;;;;;;;;;;;;;;;-2.32;100.00;102416.53;5032152;28;20342;-65
2024/03/11 01:50:47;;;;;;;;;;;;;;;-2.24;100.00;102412.00;5032659;28;19987;-65
2024/03/11 01:53:14;;;;;;;;;;;;;;;-2.15;100.00;102416.09;5034208;28;20361;-67
2024/03/11 01:55:40;;;;;;;;;;;;;;;-2.04;100.00;102419.25;5032418;28;19972;-66
2024/03/11 01:58:09;;;;;;;;;;;;;;;-1.94;100.00;102423.34;5032021;28;19923;-67
2024/03/11 02:00:35;;;;;;;;;;;;;;;-1.84;100.00;102422.19;5030965;28;19924;-67
2024/03/11 02:03:00;;;;;;;;;;;;;;;-1.76;100.00;102417.59;5032080;28;19917;-67
2024/03/11 02:05:26;;;;;;;;;;;;;;;-1.70;100.00;102412.22;5032431;28;19917;-65
2024/03/11 02:07:59;;;;;;;;;;;;;;;-1.62;100.00;102409.38;5032893;28;19963;-66
2024/03/11 02:10:26;;;;;;;;;;;;;;;-1.59;100.00;102415.38;5031535;28;19921;-65
2024/03/11 02:12:52;;;;;;;;;;;;;;;-1.56;100.00;102417.03;5032058;28;19971;-66
2024/03/11 02:15:17;;;;;;;;;;;;;;;-1.51;100.00;102422.13;5031730;28;19917;-67
2024/03/11 02:17:43;;;;;;;;;;;;;;;-1.46;100.00;102430.69;5032014;28;19917;-67
2024/03/11 02:20:18;;;;;;;;;;;;;;;-1.46;100.00;102420.22;5030653;28;19928;-65
2024/03/11 02:22:45;;;;;;;;;;;;;;;-1.43;100.00;102420.19;5032055;28;19923;-66
2024/03/11 02:25:14;;;;;;;;;;;;;;;-1.42;100.00;102427.09;5032814;28;20023;-66
2024/03/11 02:27:41;;;;;;;;;;;;;;;-1.39;100.00;102429.63;5030761;28;19921;-66
2024/03/11 02:30:07;;;;;;;;;;;;;;;-1.34;100.00;102427.72;5031893;28;19921;-66
2024/03/11 02:32:33;;;;;;;;;;;;;;;-1.30;100.00;102426.72;5031846;28;19924;-65
2024/03/11 02:34:58;;;;;;;;;;;;;;;-1.30;100.00;102426.72;5031797;28;19916;-67
2024/03/11 02:37:24;;;;;;;;;;;;;;;-1.29;100.00;102429.28;5031961;28;20296;-66
2024/03/11 02:39:51;;;;;;;;;;;;;;;-1.28;100.00;102422.31;5032988;28;20300;-67
2024/03/11 02:42:16;;;;;;;;;;;;;;;-1.23;100.00;102423.03;5032047;28;19917;-65
2024/03/11 02:44:42;;;;;;;;;;;;;;;-1.23;100.00;102422.16;5030530;28;20408;-67
2024/03/11 02:47:07;;;;;;;;;;;;;;;-1.18;100.00;102415.88;5031968;28;20392;-64
2024/03/11 02:49:33;;;;;;;;;;;;;;;-1.14;100.00;102424.53;5031765;28;19932;-65
2024/03/11 02:51:58;;;;;;;;;;;;;;;-1.12;100.00;102426.19;5032031;28;20023;-64
2024/03/11 02:54:26;;;;;;;;;;;;;;;-1.12;100.00;102426.19;5013994;28;19917;-64
2024/03/11 02:56:51;;;;;;;;;;;;;;;-1.11;100.00;102421.81;5033014;28;20063;-63
2024/03/11 02:59:16;;;;;;;;;;;;;;;-1.08;100.00;102430.41;5030455;28;20004;-65
2024/03/11 03:01:42;;;;;;;;;;;;;;;-1.14;100.00;102428.00;5031816;28;19956;-65
2024/03/11 03:04:07;;;;;;;;;;;;;;;-1.12;100.00;102427.94;5030318;28;19975;-66
2024/03/11 03:06:33;;;;;;;;;;;;;;;-1.13;100.00;102419.25;5031735;28;20055;-65
2024/03/11 03:08:58;;;;;;;;;;;;;;;-1.08;100.00;102427.78;5031555;28;19921;-65
2024/03/11 03:11:23;;;;;;;;;;;;;;;-1.01;100.00;102429.31;5031271;28;19921;-65
2024/03/11 03:13:50;;;;;;;;;;;;;;;-0.97;100.00;102430.91;5032125;28;19916;-65
2024/03/11 03:16:16;;;;;;;;;;;;;;;-0.93;100.00;102427.31;5032222;28;20024;-64
2024/03/11 03:18:41;;;;;;;;;;;;;;;-0.88;100.00;102421.91;5035150;28;19956;-64
2024/03/11 03:21:06;;;;;;;;;;;;;;;-0.88;100.00;102419.31;5035659;28;19917;-64
2024/03/11 03:23:32;;;;;;;;;;;;;;;-0.85;100.00;102423.63;5035212;28;19971;-65
2024/03/11 03:25:59;;;;;;;;;;;;;;;-0.82;100.00;102423.50;5035039;28;19917;-64
2024/03/11 03:28:26;;;;;;;;;;;;;;;-0.80;100.00;102419.09;5037639;28;19920;-66
2024/03/11 03:30:53;;;;;;;;;;;;;;;-0.75;100.00;102430.25;5033466;28;19957;-65
2024/03/11 03:33:19;;;;;;;;;;;;;;;-0.72;100.00;102424.91;5034955;28;19921;-64
2024/03/11 03:35:45;;;;;;;;;;;;;;;-0.69;100.00;102424.81;5033640;28;20369;-65
2024/03/11 03:38:10;;;;;;;;;;;;;;;-0.68;100.00;102426.53;5033219;28;19924;-65
2024/03/11 03:40:36;;;;;;;;;;;;;;;-0.70;100.00;102418.72;5034359;28;20288;-64
2024/03/11 03:43:03;;;;;;;;;;;;;;;-0.70;100.00;102418.72;5035623;28;19993;-66
2024/03/11 03:45:29;;;;;;;;;;;;;;;-0.65;100.00;102421.19;5034948;28;19947;-65
2024/03/11 03:47:54;;;;;;;;;;;;;;;-0.65;100.00;102421.19;5034976;28;19917;-65
2024/03/11 03:50:21;;;;;;;;;;;;;;;-0.63;100.00;102424.59;5033126;28;19916;-65
2024/03/11 03:52:46;;;;;;;;;;;;;;;-0.59;100.00;102423.59;5034360;28;20320;-65
2024/03/11 03:55:12;;;;;;;;;;;;;;;-0.57;100.00;102426.19;5033152;28;19917;-65
2024/03/11 03:57:42;;;;;;;;;;;;;;;-0.53;100.00;102419.94;5032886;28;20436;-65
2024/03/11 04:00:15;;;;;;;;;;;;;;;-0.52;100.00;102421.66;5034986;28;19917;-65
2024/03/11 04:02:41;;;;;;;;;;;;;;;-0.53;100.00;102414.72;5034496;28;19917;-64
2024/03/11 04:05:06;;;;;;;;;;;;;;;-0.53;100.00;102412.94;5033156;28;20274;-66
2024/03/11 04:07:31;;;;;;;;;;;;;;;-0.50;100.00;102405.00;5034470;28;20373;-67
2024/03/11 04:09:57;;;;;;;;;;;;;;;-0.50;100.00;102410.22;5033925;28;19917;-66
2024/03/11 04:12:22;;;;;;;;;;;;;;;-0.48;100.00;102405.78;5034299;28;19921;-66
2024/03/11 04:14:47;;;;;;;;;;;;;;;-0.44;100.00;102404.78;5033851;28;19928;-67
2024/03/11 04:17:14;;;;;;;;;;;;;;;-0.42;100.00;102408.19;5034591;28;19917;-65
2024/03/11 04:19:40;;;;;;;;;;;;;;;-0.41;100.00;102409.06;5032558;28;19917;-67
2024/03/11 04:22:06;;;;;;;;;;;;;;;-0.41;100.00;102406.44;5033891;28;20299;-64
2024/03/11 04:24:32;;;;;;;;;;;;;;;-0.38;100.00;102409.81;5033605;28;19924;-67
2024/03/11 04:26:59;;;;;;;;;;;;;;;-0.36;100.00;102405.38;5033596;28;19920;-66
2024/03/11 04:29:25;;;;;;;;;;;;;;;-0.34;100.00;102411.41;5031459;28;19920;-67
2024/03/11 04:31:50;;;;;;;;;;;;;;;-0.31;100.00;102413.91;5034010;28;20277;-68
2024/03/11 04:34:15;;;;;;;;;;;;;;;-0.26;100.00;102418.16;5034094;28;20333;-69
2024/03/11 04:36:44;;;;;;;;;;;;;;;-0.26;100.00;102418.16;5033928;28;19939;-67
2024/03/11 04:39:14;;;;;;;;;;;;;;;-0.24;100.00;102421.59;5038624;28;19924;-64
2024/03/11 04:41:40;;;;;;;;;;;;;;;-0.22;100.00;102423.25;5032685;28;19924;-65
2024/03/11 04:44:05;;;;;;;;;;;;;;;-0.21;100.00;102427.56;5035105;28;19924;-64
2024/03/11 04:46:31;;;;;;;;;;;;;;;-0.20;100.00;102424.03;5016849;28;20012;-65
2024/03/11 04:48:58;;;;;;;;;;;;;;;-0.18;100.00;102421.38;5033725;28;19952;-64
2024/03/11 04:51:23;;;;;;;;;;;;;;;-0.17;100.00;102417.84;5032780;28;19917;-63
2024/03/11 04:53:49;;;;;;;;;;;;;;;-0.17;100.00;102423.06;5035160;28;20309;-64
2024/03/11 04:56:15;;;;;;;;;;;;;;;-0.19;100.00;102424.88;5033474;28;20020;-66
2024/03/11 04:58:41;;;;;;;;;;;;;;;-0.17;100.00;102417.84;5038206;28;19916;-67
2024/03/11 05:01:06;;;;;;;;;;;;;;;-0.11;100.00;102420.22;5032239;28;19917;-65
2024/03/11 05:03:31;;;;;;;;;;;;;;;-0.06;100.00;102423.53;5034289;28;20289;-67
2024/03/11 05:05:57;;;;;;;;;;;;;;;-0.01;100.00;102424.22;5035487;28;19923;-69
2024/03/11 05:08:22;;;;;;;;;;;;;;;0.03;100.00;102428.47;5034332;28;19916;-64
2024/03/11 05:10:47;;;;;;;;;;;;;;;0.03;100.00;102436.34;5034559;28;19921;-69
2024/03/11 05:13:14;;;;;;;;;;;;;;;0.08;100.00;102429.16;5033117;28;19921;-66
2024/03/11 05:15:42;;;;;;;;;;;;;;;0.06;100.00;102423.13;5032651;28;19920;-64
2024/03/11 05:18:08;;;;;;;;;;;;;;;0.09;100.00;102427.41;5031557;28;19917;-65
2024/03/11 05:20:33;;;;;;;;;;;;;;;0.12;100.00;102430.75;5033472;28;19971;-64
2024/03/11 05:22:59;;;;;;;;;;;;;;;0.16;100.00;102428.88;5031510;28;20365;-63
2024/03/11 05:25:24;;;;;;;;;;;;;;;0.20;100.00;102426.09;5030412;28;19917;-63
2024/03/11 05:27:51;;;;;;;;;;;;;;;0.26;100.00;102432.88;5030864;28;19925;-64
2024/03/11 05:30:17;;;;;;;;;;;;;;;0.32;100.00;102422.19;5029305;28;19921;-67
2024/03/11 05:32:42;;;;;;;;;;;;;;;0.37;100.00;102428.09;5032424;28;20015;-69
2024/03/11 05:35:08;;;;;;;;;;;;;;;0.40;100.00;102420.13;5033633;28;19964;-66
2024/03/11 05:37:33;;;;;;;;;;;;;;;0.44;100.00;102426.09;5033283;28;19917;-65
2024/03/11 05:40:05;;;;;;;;;;;;;;;0.48;100.00;102430.31;5032117;28;19917;-67
2024/03/11 05:42:31;;;;;;;;;;;;;;;0.55;100.00;102430.03;5022870;28;19917;-65
2024/03/11 05:44:56;;;;;;;;;;;;;;;0.63;100.00;102427.13;5013043;28;20385;-65
2024/03/11 05:47:25;;;;;;;;;;;;;;;0.68;100.00;102426.97;5012966;28;20300;-66
2024/03/11 05:49:51;;;;;;;;;;;;;;;0.70;100.00;102431.22;5012694;28;20376;-66
2024/03/11 05:52:17;;;;;;;;;;;;;;;0.72;100.00;102424.16;5013200;28;19917;-68
2024/03/11 05:54:50;;;;;;;;;;;;;;;0.72;100.00;102437.25;5012636;28;19963;-66
2024/03/11 05:57:22;;;;;;;;;;;;;;;0.75;100.00;102426.66;5012751;28;19975;-65
2024/03/11 05:59:48;;;;;;;;;;;;;;;0.81;100.00;102428.19;5011735;28;19972;-65
2024/03/11 06:02:13;;;;;;;;;;;;;;;0.83;100.00;102440.31;5015948;28;19917;-67
2024/03/11 06:04:38;;;;;;;;;;;;;;;0.88;100.00;102434.94;5035341;28;20469;-66
2024/03/11 06:07:04;;;;;;;;;;;;;;;0.91;100.00;102438.28;5035817;28;19925;-65
2024/03/11 06:09:29;;;;;;;;;;;;;;;0.98;100.00;102438.03;5039870;28;20412;-63
2024/03/11 06:11:54;;;;;;;;;;;;;;;1.05;100.00;102439.50;5049941;28;19920;-66
2024/03/11 06:14:20;;;;;;;;;;;;;;;1.06;100.00;102435.97;5039615;28;19925;-65
2024/03/11 06:16:45;;;;;;;;;;;;;;;1.02;99.29;102432.59;5036860;28;20022;-65
2024/03/11 06:19:11;;;;;;;;;;;;;;;1.00;97.99;102436.19;5036718;28;20402;-65
2024/03/11 06:21:37;;;;;;;;;;;;;;;1.00;98.61;102441.44;5032744;28;20444;-66
2024/03/11 06:24:02;;;;;;;;;;;;;;;1.04;98.10;102437.78;5032953;28;20014;-68
2024/03/11 06:26:28;;;;;;;;;;;;;;;1.09;97.52;102434.06;5033226;28;19924;-66
2024/03/11 06:28:55;;;;;;;;;;;;;;;1.08;97.94;102442.00;5033831;28;19921;-65
2024/03/11 06:31:22;;;;;;;;;;;;;;;1.07;98.06;102443.75;5027413;28;19920;-67
2024/03/11 06:33:49;;;;;;;;;;;;;;;1.07;97.07;102443.75;5037523;28;19997;-65
2024/03/11 06:36:16;;;;;;;;;;;;;;;1.12;97.56;102440.94;5036141;28;19925;-67
2024/03/11 06:38:42;;;;;;;;;;;;;;;1.17;98.07;102441.66;5033990;28;19917;-67
2024/03/11 06:41:08;;;;;;;;;;;;;;;1.14;97.62;102441.75;5038813;28;20309;-69
2024/03/11 06:43:33;;;;;;;;;;;;;;;1.17;97.85;102444.28;5036687;28;19917;-66
2024/03/11 06:45:58;;;;;;;;;;;;;;;1.21;96.78;102437.97;5033614;28;19932;-68
2024/03/11 06:48:24;;;;;;;;;;;;;;;1.25;97.38;102447.44;5033123;28;19917;-68
2024/03/11 06:50:49;;;;;;;;;;;;;;;1.32;97.68;102451.53;5035547;28;19961;-66
2024/03/11 06:53:14;;;;;;;;;;;;;;;1.32;96.64;102448.91;5040626;28;19925;-67
2024/03/11 06:55:39;;;;;;;;;;;;;;;1.32;97.48;102443.66;5043425;28;19921;-68
2024/03/11 06:58:05;;;;;;;;;;;;;;;1.31;97.86;102456.84;5039098;28;19920;-67
2024/03/11 07:00:30;;;;;;;;;;;;;;;1.33;97.73;102447.13;5041437;28;19920;-72
2024/03/11 07:02:56;;;;;;;;;;;;;;;1.32;98.15;102458.53;5036816;28;19925;-67
2024/03/11 07:05:26;;;;;;;;;;;;;;;1.33;97.68;102450.59;5038062;28;20446;-67
2024/03/11 07:07:52;;;;;;;;;;;;;;;1.39;98.62;102455.59;5038952;28;19979;-66
2024/03/11 07:10:17;;;;;;;;;;;;;;;1.44;98.49;102453.63;5043171;28;19921;-66
2024/03/11 07:12:43;;;;;;;;;;;;;;;1.49;98.35;102450.84;5043738;28;19967;-66
2024/03/11 07:15:10;;;;;;;;;;;;;;;1.51;98.16;102455.13;5054581;28;19921;-66
2024/03/11 07:17:35;;;;;;;;;;;;;;;1.60;98.23;102455.66;5055084;28;19948;-67
2024/03/11 07:20:01;;;;;;;;;;;;;;;1.67;97.95;102459.72;5024838;28;19921;-67
2024/03/11 07:22:27;;;;;;;;;;;;;;;1.73;97.98;102454.19;5041779;28;19920;-69
2024/03/11 07:24:53;;;;;;;;;;;;;;;1.70;96.66;102449.94;5039121;28;20019;-67
2024/03/11 07:27:19;;;;;;;;;;;;;;;1.70;96.34;102452.56;5048502;28;19967;-67
2024/03/11 07:29:44;;;;;;;;;;;;;;;1.76;97.39;102454.94;5034493;28;20024;-66
2024/03/11 07:32:11;;;;;;;;;;;;;;;1.81;96.94;102442.47;5035583;28;19917;-67
2024/03/11 07:34:42;;;;;;;;;;;;;;;1.88;96.70;102458.81;5038912;28;20015;-68
2024/03/11 07:37:09;;;;;;;;;;;;;;;1.91;96.31;102460.47;5032616;28;19928;-67
2024/03/11 07:39:36;;;;;;;;;;;;;;;2.00;95.90;102457.44;5034568;28;19920;-67
2024/03/11 07:42:01;;;;;;;;;;;;;;;2.08;95.48;102457.97;5037723;28;20376;-67
2024/03/11 07:44:27;;;;;;;;;;;;;;;2.15;95.36;102462.88;5018512;28;19917;-65
2024/03/11 07:46:53;;;;;;;;;;;;;;;2.14;92.99;102455.94;5035159;28;20331;-68
2024/03/11 07:49:18;;;;;;;;;;;;;;;2.13;92.07;102459.47;5039055;28;20059;-66
2024/03/11 07:51:44;;;;;;;;;;;;;;;2.23;92.41;102464.31;5036496;28;19921;-68
2024/03/11 07:54:11;;;;;;;;;;;;;;;2.29;89.48;102457.00;5063351;28;19917;-66
2024/03/11 07:56:37;;;;;;;;;;;;;;;2.27;84.87;102465.88;5036339;28;19955;-67
2024/03/11 07:59:04;;;;;;;;;;;;;;;2.26;85.33;102465.03;5038413;28;19917;-68
2024/03/11 08:01:31;;;;;;;;;;;;;;;2.25;83.42;102463.34;5036179;28;20082;-68
2024/03/11 08:03:56;;;;;;;;;;;;;;;2.22;82.68;102452.94;5036195;28;20003;-67
2024/03/11 08:06:22;;;;;;;;;;;;;;;2.23;82.49;102454.66;5035832;28;20023;-68
2024/03/11 08:08:51;;;;;;;;;;;;;;;2.24;81.36;102460.78;5030755;28;20253;-69
2024/03/11 08:11:16;;;;;;;;;;;;;;;2.29;80.68;102457.00;5036651;28;19975;-67
2024/03/11 08:13:41;;;;;;;;;;;;;;;2.38;81.64;102454.00;5035442;28;19925;-66
2024/03/11 08:16:09;;;;;;;;;;;;;;;2.41;77.33;102456.47;5034287;28;19943;-67
2024/03/11 08:18:34;;;;;;;;;;;;;;;2.46;78.33;102464.16;5040703;28;19967;-71
2024/03/11 08:21:00;;;;;;;;;;;;;;;2.44;78.96;102464.22;5029490;28;19917;-72
2024/03/11 08:23:25;;;;;;;;;;;;;;;2.51;78.34;102463.94;5034498;28;19998;-70
2024/03/11 08:25:51;;;;;;;;;;;;;;;2.46;75.34;102470.28;5035847;28;19916;-69
2024/03/11 08:28:18;;;;;;;;;;;;;;;2.48;76.74;102460.53;5037072;28;19928;-66
2024/03/11 08:30:45;;;;;;;;;;;;;;;2.45;75.03;102465.09;5034030;28;19931;-66
2024/03/11 08:33:12;;;;;;;;;;;;;;;2.43;74.22;102452.00;5035615;28;19920;-68
2024/03/11 08:35:38;;;;;;;;;;;;;;;2.48;72.92;102457.91;5036010;28;20268;-71
2024/03/11 08:38:03;;;;;;;;;;;;;;;2.54;73.87;102462.03;5036193;28;19917;-72
2024/03/11 08:40:28;;;;;;;;;;;;;;;2.59;71.83;102460.03;5034240;28;19925;-71
2024/03/11 08:42:56;;;;;;;;;;;;;;;2.61;70.86;102463.47;5018334;28;19921;-71
2024/03/11 08:45:22;;;;;;;;;;;;;;;2.61;70.05;102467.88;5039577;28;20003;-72
2024/03/11 08:47:48;;;;;;;;;;;;;;;2.66;71.22;102468.53;5037772;28;19968;-68
2024/03/11 08:50:16;;;;;;;;;;;;;;;2.67;69.12;102463.19;5038594;28;20090;-69
2024/03/11 08:52:45;;;;;;;;;;;;;;;2.68;69.96;102470.16;5033312;28;19928;-70
2024/03/11 08:55:13;;;;;;;;;;;;;;;2.68;68.91;102472.78;5033587;28;20038;-69
2024/03/11 08:57:38;;;;;;;;;;;;;;;2.65;67.32;102472.94;5039036;28;20352;-71
2024/03/11 09:00:07;;;;;;;;;;;;;;;2.73;69.34;102465.53;5038691;28;19927;-70
2024/03/11 09:02:33;;;;;;;;;;;;;;;2.85;69.89;102463.25;5036438;28;19921;-69
2024/03/11 09:04:58;;;;;;;;;;;;;;;2.87;66.51;102471.94;5035074;28;19932;-68
2024/03/11 09:07:26;;;;;;;;;;;;;;;2.89;67.10;102464.81;5034192;28;19920;-69
2024/03/11 09:09:51;;;;;;;;;;;;;;;2.96;65.49;102466.25;5033851;28;19921;-70
2024/03/11 09:12:16;;;;;;;;;;;;;;;2.96;64.92;102467.09;5035720;28;19924;-70
2024/03/11 09:14:42;;;;;;;;;;;;;;;3.01;64.49;102466.88;5039068;28;19923;-71
2024/03/11 09:17:07;;;;;;;;;;;;;;;2.96;63.63;102471.53;5040781;28;20051;-71
2024/03/11 09:19:33;;;;;;;;;;;;;;;2.97;63.65;102465.34;5040787;28;19917;-69
2024/03/11 09:21:58;;;;;;;;;;;;;;;3.05;64.25;102471.06;5034831;28;20015;-70
2024/03/11 09:24:24;;;;;;;;;;;;;;;3.11;64.12;102462.88;5037487;28;20015;-69
2024/03/11 09:26:50;;;;;;;;;;;;;;;3.10;62.55;102469.94;5034952;28;19967;-69
2024/03/11 09:29:20;;;;;;;;;;;;;;;3.21;63.51;102466.81;5030571;28;20281;-69
2024/03/11 09:31:46;;;;;;;;;;;;;;;3.33;62.52;102471.47;5033749;28;19925;-71
2024/03/11 09:34:12;;;;;;;;;;;;;;;3.32;62.41;102474.19;5040704;28;19916;-70
2024/03/11 09:36:38;;;;;;;;;;;;;;;3.31;61.46;102475.97;5034201;28;19923;-71
2024/03/11 09:39:05;;;;;;;;;;;;;;;3.34;61.61;102464.41;5034138;28;20311;-67
2024/03/11 09:41:37;;;;;;;;;;;;;;;3.50;62.37;102464.53;5032823;28;19924;-67
2024/03/11 09:44:04;;;;;;;;;;;;;;;3.61;61.25;102465.69;5027351;28;19917;-66
2024/03/11 09:46:33;;;;;;;;;;;;;;;3.57;60.75;102474.69;5036176;28;20017;-70
2024/03/11 09:49:00;;;;;;;;;;;;;;;3.62;60.43;102469.19;5037939;28;19939;-68
2024/03/11 09:51:26;;;;;;;;;;;;;;;3.73;59.70;102480.03;5037887;28;20525;-70
2024/03/11 09:53:52;;;;;;;;;;;;;;;3.62;58.35;102469.19;5031965;28;20019;-68
2024/03/11 09:56:21;;;;;;;;;;;;;;;3.57;58.45;102463.28;5035999;28;20024;-67
2024/03/11 09:58:58;;;;;;;;;;;;;;;3.65;59.06;102469.03;5033596;28;19920;-69
2024/03/11 10:01:30;;;;;;;;;;;;;;;3.67;58.09;102470.66;5038976;28;19943;-67
2024/03/11 10:03:56;;;;;;;;;;;;;;;3.74;57.95;102468.56;5015598;28;20389;-68
2024/03/11 10:06:24;;;;;;;;;;;;;;;3.89;58.62;102465.16;5037559;28;20495;-67
2024/03/11 10:08:49;;;;;;;;;;;;;;;3.88;57.08;102479.28;5038712;28;20004;-68
2024/03/11 10:11:18;;;;;;;;;;;;;;;3.75;56.59;102465.00;5037629;28;19958;-68
2024/03/11 10:13:45;;;;;;;;;;;;;;;3.63;56.51;102463.84;5032554;28;19921;-69
2024/03/11 10:16:14;;;;;;;;;;;;;;;3.64;56.85;102485.78;5033469;28;19920;-69
2024/03/11 10:18:46;;;;;;;;;;;;;;;3.36;56.91;102423.91;5039348;28;20277;-67
2024/03/11 10:21:16;;;;;;;;;;;;;;;3.70;57.06;102464.38;5035954;28;20411;-68
2024/03/11 10:23:42;;;;;;;;;;;;;;;3.74;56.57;102464.16;5036900;28;19917;-69
2024/03/11 10:26:18;;;;;;;;;;;;;;;3.89;57.11;102469.59;5037366;28;19917;-67
2024/03/11 10:28:47;;;;;;;;;;;;;;;4.04;57.18;102469.63;5051667;28;19921;-72
2024/03/11 10:31:21;;;;;;;;;;;;;;;4.14;57.20;102469.19;5054745;28;19917;-69
2024/03/11 10:33:50;;;;;;;;;;;;;;;4.28;57.73;102469.31;5057222;28;19921;-69
2024/03/11 10:36:15;;;;;;;;;;;;;;;4.23;56.46;102468.69;5059260;28;19921;-67
2024/03/11 10:38:43;;;;;;;;;;;;;;;4.04;54.94;102472.28;5056100;28;19932;-68
2024/03/11 10:41:16;;;;;;;;;;;;;;;3.86;56.56;102475.88;5082566;28;19944;-67
2024/03/11 10:43:41;;;;;;;;;;;;;;;3.61;56.21;102476.25;5055708;28;19921;-67
2024/03/11 10:46:20;;;;;;;;;;;;;;;3.36;56.50;102476.59;5056626;28;19917;-66
2024/03/11 10:48:50;;;;;;;;;;;;;;;3.24;56.96;102469.28;5053336;28;19921;-70
2024/03/11 10:51:24;;;;;;;;;;;;;;;3.35;57.33;102476.66;5050574;28;20400;-66
2024/03/11 10:53:53;;;;;;;;;;;;;;;3.36;56.42;102473.09;5050086;28;19929;-72
2024/03/11 10:56:25;;;;;;;;;;;;;;;3.69;55.12;102473.22;5049032;28;19948;-66
2024/03/11 10:58:55;;;;;;;;;;;;;;;3.98;55.60;102474.38;5051317;28;19924;-69
2024/03/11 11:01:30;;;;;;;;;;;;;;;4.17;53.36;102472.53;5051234;28;19988;-73
2024/03/11 11:03:56;;;;;;;;;;;;;;;4.29;52.81;102476.28;5060658;28;19920;-69
2024/03/11 11:06:27;;;;;;;;;;;;;;;4.42;52.20;102473.88;5048165;28;19921;-68
2024/03/11 11:08:54;;;;;;;;;;;;;;;4.29;52.26;102484.19;5041252;28;19921;-68
2024/03/11 11:11:20;;;;;;;;;;;;;;;4.11;51.09;102482.53;5038343;28;20304;-68
2024/03/11 11:13:46;;;;;;;;;;;;;;;4.06;51.18;102479.28;5038584;28;19924;-67
2024/03/11 11:16:13;;;;;;;;;;;;;;;3.99;51.93;102484.84;5035369;28;20016;-69
2024/03/11 11:18:40;;;;;;;;;;;;;;;3.89;53.09;102475.72;5023208;28;19943;-67
2024/03/11 11:21:10;;;;;;;;;;;;;;;3.73;52.06;102488.78;5041497;28;20019;-67
2024/03/11 11:23:36;;;;;;;;;;;;;;;3.52;52.87;102481.13;5037377;28;19963;-69
2024/03/11 11:26:05;;;;;;;;;;;;;;;3.37;52.85;102480.91;5042389;28;20268;-69
2024/03/11 11:28:37;;;;;;;;;;;;;;;3.35;53.01;102474.88;5024078;28;19964;-69
2024/03/11 11:31:25;;;;;;;;;;;;;;;3.35;52.64;102480.16;5039600;28;19917;-69
2024/03/11 11:33:53;;;;;;;;;;;;;;;3.29;51.89;102469.06;5034343;28;19968;-69
2024/03/11 11:36:39;;;;;;;;;;;;;;;3.33;52.68;102478.50;5041723;28;19925;-70
2024/03/11 11:39:13;;;;;;;;;;;;;;;3.46;52.05;102470.84;5033131;28;19925;-70
2024/03/11 11:41:40;;;;;;;;;;;;;;;3.42;51.46;102465.75;5037387;28;19932;-69
2024/03/11 11:44:07;;;;;;;;;;;;;;;3.40;52.43;102467.59;5040701;28;20011;-68
2024/03/11 11:46:51;;;;;;;;;;;;;;;3.46;53.13;102455.06;5035349;28;19925;-67
2024/03/11 11:49:18;;;;;;;;;;;;;;;3.49;53.24;102458.41;5039030;28;19979;-68
2024/03/11 11:51:47;;;;;;;;;;;;;;;3.54;54.00;102453.78;5018856;28;19941;-66
2024/03/11 11:54:19;;;;;;;;;;;;;;;3.64;54.17;102454.16;5044208;28;19921;-68
2024/03/11 11:56:45;;;;;;;;;;;;;;;3.68;55.19;102456.56;5043851;28;19917;-67
2024/03/11 11:59:12;;;;;;;;;;;;;;;3.71;54.09;102455.53;5042163;28;20437;-69
2024/03/11 12:01:49;;;;;;;;;;;;;;;3.67;53.36;102454.00;5033969;28;19971;-69
2024/03/11 12:04:15;;;;;;;;;;;;;;;3.63;53.04;102458.56;5033667;28;20393;-68
2024/03/11 12:06:40;;;;;;;;;;;;;;;3.73;53.41;102458.94;5041380;28;19956;-65
2024/03/11 12:09:12;;;;;;;;;;;;;;;3.76;51.66;102457.94;5039797;28;19928;-68
2024/03/11 12:11:41;;;;;;;;;;;;;;;3.80;51.84;102455.09;5034011;28;19916;-67
2024/03/11 12:14:09;;;;;;;;;;;;;;;3.79;52.70;102452.53;5038058;28;19996;-66
2024/03/11 12:16:34;;;;;;;;;;;;;;;3.70;51.35;102453.84;5036215;28;20015;-67
2024/03/11 12:19:07;;;;;;;;;;;;;;;3.64;51.34;102462.06;5033424;28;20074;-66
2024/03/11 12:21:39;;;;;;;;;;;;;;;3.69;52.93;102457.41;5034057;28;19950;-68
2024/03/11 12:24:09;;;;;;;;;;;;;;;3.69;53.73;102449.50;5032370;28;20426;-67
2024/03/11 12:26:35;;;;;;;;;;;;;;;3.78;54.57;102456.97;5032015;28;19928;-65
2024/03/11 12:29:03;;;;;;;;;;;;;;;3.81;54.42;102443.63;5034818;28;20377;-66
2024/03/11 12:31:33;;;;;;;;;;;;;;;3.86;54.95;102453.94;5033521;28;19917;-67
2024/03/11 12:34:18;;;;;;;;;;;;;;;3.67;55.26;102446.09;5035150;28;20408;-67
2024/03/11 12:36:46;;;;;;;;;;;;;;;3.43;56.33;102442.88;5033297;28;19949;-66